East Baffin - southern half: Past 24 Hour Conditions

 

Nain Airport

10:00 PM AST 28 November 2014
This table is a summary of hourly weather conditions for the past 24 hours.
Date / Time
(AST)
Wind(knots) Conditions Visibility(km) Pressure(kPa) Air tempC) Relative humidity(%) Dew pointC) Wind Chill
28 November 2014
22:00 WSW 7 N/A N/A 101.3 -15 72 -19 -23
21:00 W 10 N/A N/A 101.4 -13 62 -19 -22
20:00 WNW 9 gust 15 Clear 24 101.4 -13 68 -17 -21
19:00 W 13 Clear 24 101.4 -12 70 -17 -21
18:00 WNW 9 Partly Cloudy 24 101.4 -13 72 -17 -21
17:00 WNW 13 Mainly Clear 24 101.4 -11 51 -20 -20
16:00 WNW 14 Clear 24 101.4 -11 55 -18 -20
15:00 WNW 12 gust 18 Sunny 24 101.3 -10 49 -19 -18
14:00 W 13 gust 20 Sunny 24 101.3 -10 51 -18 -18
13:00 W 11 gust 18 Sunny 24 101.3 -10 55 -17 -18
12:00 W 7 Sunny 24 101.3 -10 56 -17 -17
11:00 W 6 Sunny 24 101.4 -12 57 -19 -18
10:00 SW 5 Sunny 24 101.4 -14 63 -19 -19
9:00 W 4 Sunny 24 101.4 -16 63 -21 -21
8:00 W 6 Clear 24 101.4 -13 62 -19 -19
7:00 W 7 Clear 24 101.5 -16 70 -20 -23
6:00 W 6 Clear 24 101.5 -15 69 -19 -21
5:00 W 5 Clear 24 101.5 -15 67 -20 -21
4:00 W 8 N/A N/A 101.4 -15 72 -19 -22
3:00 WNW 12 gust 20 N/A N/A 101.4 -12 67 -17 -21
2:00 WNW 15 N/A N/A 101.3 -12 70 -16 -22
1:00 WNW 16 N/A N/A 101.3 -12 70 -16 -22
0:00 WNW 14 N/A N/A 101.3 -12 68 -16 -21
27 November 2014
23:00 WNW 11 gust 19 N/A N/A 101.4 -12 66 -17 -20
22:00 NW 16 gust 23 N/A N/A 101.4 -12 67 -16 -22
 
Map of Arctic - Eastern Arctic marine weather areas Baker Lake Airport Chesterfield Inlet Airport Coral Harbour Airport Gjoa Haven Airport Kugaaruk Airport Rankin Inlet Airport Shepherd Bay Airport Whale Cove Airport Arctic Bay Brevoort Island Qikiqtarjuaq Airport Cape Dorset Airport Cape Dyer Cape Hooper Clyde Airport Grise Fiord Airport Hall Beach Airport Igloolik Airport Iqaluit Airport Longstaff Bluff Pangnirtung Airport Pond Inlet Airport Repulse Bay Airport Resolute Airport Resolution Island Rowley Island Airport Taloyoak Airport Wager Bay Akulivik Airport Ivujivik Airport Puvirnituq Airport Kangiqsujuaq Airport Kangirsuk Airport Quaqtaq Airport Tasiujaq Airport Cape Kakkiviak Cape Kiglapait Nain Airport Saglek Cape Mercy Kimmirut Airport Aupaluk Airport Salluit Airport Kangiqsualujjuaq Airport Fort Ross
Legend: buoyBuoy land stationLand Station